createdAt,value
2022-09-21T00:01:28.977Z,101299.31
2022-09-21T00:03:59.003Z,101300.34
2022-09-21T00:06:29.060Z,101294.94
2022-09-21T00:08:58.962Z,101292.78
2022-09-21T00:11:29.658Z,101298.56
2022-09-21T00:14:01.046Z,101302.41
2022-09-21T00:16:30.246Z,101301.34
2022-09-21T00:18:58.643Z,101295.72
2022-09-21T00:21:28.386Z,101293.59
2022-09-21T00:23:59.424Z,101293.50
2022-09-21T00:26:28.901Z,101292.06
2022-09-21T00:28:58.927Z,101290.22
2022-09-21T00:31:28.881Z,101293.13
2022-09-21T00:33:58.467Z,101295.91
2022-09-21T00:36:27.656Z,101294.38
2022-09-21T00:38:59.818Z,101299.25
2022-09-21T00:41:29.085Z,101297.47
2022-09-21T00:44:27.299Z,101300.78
2022-09-21T00:46:58.107Z,101294.75
2022-09-21T00:49:28.687Z,101302.69
2022-09-21T00:52:00.369Z,101303.59
2022-09-21T00:54:33.843Z,101295.28
2022-09-21T00:57:03.146Z,101295.28
2022-09-21T00:59:33.528Z,101284.00
2022-09-21T01:02:02.364Z,101281.34
2022-09-21T01:04:31.766Z,101294.97
2022-09-21T01:07:04.202Z,101289.91
2022-09-21T01:09:34.594Z,101283.25
2022-09-21T01:12:17.961Z,101286.34
2022-09-21T01:15:07.215Z,101274.34
2022-09-21T01:17:44.405Z,101275.34
2022-09-21T01:20:29.339Z,101273.25
2022-09-21T01:23:11.209Z,101266.75
2022-09-21T01:25:53.257Z,101260.38
2022-09-21T01:28:30.532Z,101255.88
2022-09-21T01:31:06.152Z,101248.53
2022-09-21T01:33:40.826Z,101251.91
2022-09-21T01:36:15.165Z,101209.66
2022-09-21T01:38:46.594Z,101222.66
2022-09-21T01:41:17.528Z,101249.97
2022-09-21T01:43:50.460Z,101254.47
2022-09-21T01:46:23.213Z,101251.81
2022-09-21T01:48:56.048Z,101250.09
2022-09-21T01:51:29.665Z,101247.75
2022-09-21T01:54:03.275Z,101235.63
2022-09-21T01:56:37.303Z,101231.94
2022-09-21T01:59:18.071Z,101231.53
2022-09-21T02:01:53.379Z,101226.91
2022-09-21T02:04:21.817Z,101232.84
2022-09-21T02:06:52.176Z,101222.94
2022-09-21T02:09:21.039Z,101224.78
2022-09-21T02:11:49.235Z,101230.00
2022-09-21T02:14:21.606Z,101228.78
2022-09-21T02:17:02.657Z,101229.50
2022-09-21T02:19:38.284Z,101229.78
2022-09-21T02:22:12.892Z,101234.31
2022-09-21T02:24:43.699Z,101202.84
2022-09-21T02:27:25.608Z,101232.75
2022-09-21T02:30:03.443Z,101236.16
2022-09-21T02:32:39.597Z,101226.66
2022-09-21T02:35:15.848Z,101229.50
2022-09-21T02:37:52.108Z,101236.44
2022-09-21T02:40:26.867Z,101225.28
2022-09-21T02:42:58.229Z,101224.72
2022-09-21T02:45:29.552Z,101221.75
2022-09-21T02:48:04.600Z,101212.91
2022-09-21T02:50:37.822Z,101089.88
2022-09-21T02:53:08.895Z,101216.97
2022-09-21T02:55:37.433Z,101220.06
2022-09-21T02:58:09.109Z,101217.72
2022-09-21T03:00:38.192Z,101215.03
2022-09-21T03:03:18.418Z,101206.81
2022-09-21T03:05:49.065Z,101199.34
2022-09-21T03:08:17.379Z,101202.47
2022-09-21T03:10:46.296Z,101209.50
2022-09-21T03:13:15.214Z,101211.63
2022-09-21T03:15:43.990Z,101201.63
2022-09-21T03:18:13.696Z,101201.91
2022-09-21T03:20:47.135Z,101202.34
2022-09-21T03:23:16.024Z,101203.88
2022-09-21T03:25:45.680Z,101171.88
2022-09-21T03:28:14.745Z,101197.94
2022-09-21T03:30:44.146Z,101193.56
2022-09-21T03:33:12.996Z,101203.16
2022-09-21T03:35:42.840Z,101201.03
2022-09-21T03:38:11.348Z,101211.47
2022-09-21T03:40:39.633Z,101209.34
2022-09-21T03:43:07.933Z,101201.59
2022-09-21T03:45:36.204Z,101199.22
2022-09-21T03:48:04.506Z,101200.91
2022-09-21T03:50:32.718Z,101200.47
2022-09-21T03:53:02.410Z,101192.34
2022-09-21T03:55:31.723Z,101196.41
2022-09-21T03:58:00.065Z,101198.81
2022-09-21T04:00:28.359Z,101186.13
2022-09-21T04:02:56.960Z,101192.00
2022-09-21T04:05:25.496Z,101190.59
2022-09-21T04:07:55.999Z,101149.81
2022-09-21T04:10:29.356Z,101186.22
2022-09-21T04:12:59.404Z,101177.31
2022-09-21T04:15:27.607Z,101189.13
2022-09-21T04:17:55.913Z,101187.97
2022-09-21T04:20:24.731Z,101185.72
2022-09-21T04:22:53.076Z,101181.75
2022-09-21T04:25:21.716Z,101180.06
2022-09-21T04:27:52.322Z,101178.75
2022-09-21T04:30:20.627Z,101181.09
2022-09-21T04:32:48.913Z,101179.94
2022-09-21T04:35:17.315Z,101185.72
2022-09-21T04:37:45.618Z,101183.94
2022-09-21T04:40:13.946Z,101187.94
2022-09-21T04:42:42.160Z,101187.97
2022-09-21T04:45:12.649Z,101194.50
2022-09-21T04:47:40.969Z,101198.53
2022-09-21T04:50:10.080Z,101203.00
2022-09-21T04:52:38.412Z,101212.13
2022-09-21T04:55:07.584Z,101213.66
2022-09-21T04:57:36.580Z,101216.47
2022-09-21T05:00:05.711Z,101222.91
2022-09-21T05:02:35.387Z,101217.00
2022-09-21T05:05:03.647Z,101223.28
2022-09-21T05:07:31.868Z,101216.97
2022-09-21T05:10:05.151Z,101204.66
2022-09-21T05:12:37.540Z,101232.53
2022-09-21T05:15:09.056Z,101231.69
2022-09-21T05:17:38.790Z,101240.56
2022-09-21T05:20:07.989Z,101239.13
2022-09-21T05:22:36.268Z,101228.69
2022-09-21T05:25:05.008Z,101227.13
2022-09-21T05:27:33.260Z,101225.06
2022-09-21T05:30:02.184Z,101233.91
2022-09-21T05:32:43.884Z,101238.28
2022-09-21T05:35:19.935Z,101228.31
2022-09-21T05:37:56.608Z,101230.84
2022-09-21T05:40:25.672Z,101229.16
2022-09-21T05:42:54.421Z,101226.34
2022-09-21T05:45:23.400Z,101239.59
2022-09-21T05:48:01.210Z,101242.72
2022-09-21T05:50:47.669Z,101246.06
2022-09-21T05:53:33.977Z,101212.53
2022-09-21T05:56:08.218Z,101250.06
2022-09-21T05:58:44.864Z,101245.03
2022-09-21T06:01:26.339Z,101243.13
2022-09-21T06:03:58.084Z,101253.41
2022-09-21T06:06:26.474Z,101259.88
2022-09-21T06:08:54.615Z,101253.69
2022-09-21T06:11:23.121Z,101261.63
2022-09-21T06:13:51.325Z,101265.19
2022-09-21T06:16:19.671Z,101259.56
2022-09-21T06:18:47.895Z,101263.38
2022-09-21T06:21:18.480Z,101267.22
2022-09-21T06:23:46.827Z,101272.75
2022-09-21T06:26:15.043Z,101265.16
2022-09-21T06:28:43.305Z,101278.66
2022-09-21T06:31:11.540Z,101276.06
2022-09-21T06:33:40.049Z,101274.09
2022-09-21T06:36:08.484Z,101281.56
2022-09-21T06:38:38.160Z,101279.44
2022-09-21T06:41:06.953Z,101279.56
2022-09-21T06:43:35.177Z,101280.25
2022-09-21T06:46:04.265Z,101279.09
2022-09-21T06:48:35.513Z,101284.41
2022-09-21T06:51:05.509Z,101274.63
2022-09-21T06:53:37.260Z,101231.19
2022-09-21T06:56:08.643Z,101289.06
2022-09-21T06:58:37.941Z,101284.03
2022-09-21T07:01:08.709Z,101281.56
2022-09-21T07:03:37.815Z,101289.22
2022-09-21T07:06:07.012Z,101297.13
2022-09-21T07:11:27.580Z,101295.97
2022-09-21T07:13:56.063Z,101297.47
2022-09-21T07:16:24.622Z,101295.63
2022-09-21T07:18:52.874Z,101297.41
2022-09-21T07:21:21.231Z,101291.09
2022-09-21T07:23:50.956Z,101296.56
2022-09-21T07:26:19.658Z,101288.88
2022-09-21T07:28:48.702Z,101288.41
2022-09-21T07:31:18.647Z,101297.53
2022-09-21T07:33:47.747Z,101303.19
2022-09-21T07:36:17.872Z,101298.31
2022-09-21T07:38:46.385Z,101298.19
2022-09-21T07:41:16.546Z,101295.66
2022-09-21T07:43:44.748Z,101298.03
2022-09-21T07:46:15.936Z,101288.91
2022-09-21T07:48:44.481Z,101301.03
2022-09-21T07:51:14.483Z,101302.53
2022-09-21T07:53:45.460Z,101300.03
2022-09-21T07:56:17.079Z,101297.28
2022-09-21T07:59:03.053Z,101300.63
2022-09-21T08:01:32.242Z,101296.16
2022-09-21T08:04:01.337Z,101301.47
2022-09-21T08:06:32.972Z,101308.84
2022-09-21T08:09:01.544Z,101311.84
2022-09-21T08:11:33.735Z,101317.53
2022-09-21T08:14:03.950Z,101315.13
2022-09-21T08:16:34.224Z,101308.28
2022-09-21T08:19:03.229Z,101308.47
2022-09-21T08:21:31.501Z,101313.13
2022-09-21T08:23:59.744Z,101313.66
2022-09-21T08:26:28.094Z,101312.19
2022-09-21T08:28:59.017Z,101306.56
2022-09-21T08:31:27.949Z,101312.22
2022-09-21T08:33:57.401Z,101312.97
2022-09-21T08:36:25.920Z,101312.31
2022-09-21T08:38:55.234Z,101312.72
2022-09-21T08:41:26.499Z,101311.22
2022-09-21T08:44:00.998Z,101311.31
2022-09-21T08:46:31.039Z,101313.97
2022-09-21T08:49:07.126Z,101311.09
2022-09-21T08:51:39.550Z,101320.66
2022-09-21T08:54:15.220Z,101313.09
2022-09-21T08:57:03.965Z,101320.88
2022-09-21T08:59:33.256Z,101318.97
2022-09-21T09:02:16.267Z,101323.50
2022-09-21T09:04:57.165Z,101253.00
2022-09-21T09:07:43.697Z,101326.25
2022-09-21T09:10:29.672Z,101339.19
2022-09-21T09:13:14.272Z,101330.47
2022-09-21T09:15:57.083Z,101326.94
2022-09-21T09:18:30.770Z,101327.69
2022-09-21T09:21:04.603Z,101326.66
2022-09-21T09:23:36.174Z,101323.28
2022-09-21T09:26:10.132Z,101317.56
2022-09-21T09:28:44.950Z,101316.06
2022-09-21T09:31:20.506Z,101315.22
2022-09-21T09:33:55.596Z,101323.09
2022-09-21T09:36:53.927Z,101320.19
2022-09-21T09:39:22.570Z,101307.72
2022-09-21T09:42:20.051Z,101311.66
2022-09-21T09:45:20.746Z,101300.41
2022-09-21T09:48:05.344Z,101304.63
2022-09-21T09:50:36.417Z,101295.91
2022-09-21T09:53:08.421Z,101305.16
2022-09-21T09:55:40.212Z,101313.94
2022-09-21T09:58:21.297Z,101307.06
2022-09-21T10:00:53.306Z,101305.00
2022-09-21T10:03:24.567Z,101303.31
2022-09-21T10:05:54.294Z,101298.13
2022-09-21T10:08:42.157Z,101295.06
2022-09-21T10:11:12.331Z,101298.47
2022-09-21T10:13:43.218Z,101300.41
2022-09-21T10:16:16.944Z,101300.28
2022-09-21T10:18:52.621Z,101298.25
2022-09-21T10:21:23.819Z,101270.63
2022-09-21T10:23:54.400Z,101295.03
2022-09-21T10:26:23.834Z,101294.63
2022-09-21T10:29:00.751Z,101290.47
2022-09-21T10:31:30.510Z,101295.75
2022-09-21T10:34:14.425Z,101290.72
2022-09-21T10:36:50.136Z,101287.84
2022-09-21T10:39:28.280Z,101279.91
2022-09-21T10:42:00.832Z,101288.13
2022-09-21T10:44:35.877Z,101291.47
2022-09-21T10:47:17.065Z,101294.81
2022-09-21T10:49:51.406Z,101296.31
2022-09-21T10:52:23.424Z,101289.81
2022-09-21T10:54:56.479Z,101294.38
2022-09-21T10:57:27.135Z,101283.03
2022-09-21T10:59:57.384Z,101282.53
2022-09-21T11:02:46.699Z,101279.97
2022-09-21T11:05:18.800Z,101275.09
2022-09-21T11:07:53.475Z,101269.19
2022-09-21T11:10:33.982Z,101278.16
2022-09-21T11:13:18.571Z,101271.25
2022-09-21T11:15:53.418Z,101271.25
2022-09-21T11:18:27.813Z,101271.06
2022-09-21T11:21:08.376Z,101254.66
2022-09-21T11:23:49.907Z,101267.00
2022-09-21T11:26:26.166Z,101270.44
2022-09-21T11:29:01.293Z,101267.28
2022-09-21T11:31:50.680Z,101261.88
2022-09-21T11:34:40.393Z,101271.28
2022-09-21T11:37:19.590Z,101264.78
2022-09-21T11:40:04.521Z,101261.63
2022-09-21T11:42:50.182Z,101264.50
2022-09-21T11:45:48.442Z,101267.84
2022-09-21T11:48:28.875Z,101267.84
2022-09-21T11:51:09.643Z,101263.19
2022-09-21T11:53:54.241Z,101257.88
2022-09-21T11:56:44.330Z,101264.94
2022-09-21T11:59:42.480Z,101253.44
2022-09-21T12:02:43.558Z,101257.81
2022-09-21T12:05:21.419Z,101259.69
2022-09-21T12:08:07.939Z,101255.91
2022-09-21T12:10:48.051Z,101252.53
2022-09-21T12:13:26.096Z,101246.00
2022-09-21T12:16:03.061Z,101251.19
2022-09-21T12:18:36.457Z,101245.28
2022-09-21T12:21:13.949Z,101239.13
2022-09-21T12:23:45.028Z,101239.53
2022-09-21T12:26:18.817Z,101242.81
2022-09-21T12:28:52.543Z,101233.75
2022-09-21T12:31:27.615Z,101234.13
2022-09-21T12:34:00.324Z,101229.41
2022-09-21T12:36:36.998Z,101224.34
2022-09-21T12:39:14.550Z,101225.09
2022-09-21T12:41:52.375Z,101228.03
2022-09-21T12:44:27.272Z,101187.13
2022-09-21T12:47:09.495Z,101223.47
2022-09-21T12:49:43.432Z,101217.09
2022-09-21T12:52:22.498Z,101216.19
2022-09-21T12:54:59.303Z,101217.56
2022-09-21T12:57:58.785Z,101210.78
2022-09-21T13:00:36.341Z,101207.81
2022-09-21T13:03:12.772Z,101202.72
2022-09-21T13:05:56.748Z,101193.06
2022-09-21T13:08:29.831Z,101182.31
2022-09-21T13:11:04.673Z,101191.78
2022-09-21T13:13:38.598Z,101188.97
2022-09-21T13:16:08.462Z,101195.19
2022-09-21T13:18:39.266Z,101190.94
2022-09-21T13:21:18.689Z,101194.50
2022-09-21T13:23:54.633Z,101186.28
2022-09-21T13:26:34.063Z,101192.00
2022-09-21T13:29:08.101Z,101193.78
2022-09-21T13:32:00.446Z,101158.56
2022-09-21T13:34:31.355Z,101190.31
2022-09-21T13:37:30.905Z,101191.84
2022-09-21T13:40:41.650Z,101192.31
2022-09-21T13:43:48.228Z,101192.69
2022-09-21T13:46:56.228Z,101190.41
2022-09-21T13:49:54.866Z,101188.97
2022-09-21T13:52:34.662Z,101182.19
2022-09-21T13:55:05.987Z,101184.09
2022-09-21T13:57:39.539Z,101179.00
2022-09-21T14:00:28.491Z,101177.78
2022-09-21T14:03:04.373Z,101177.19
2022-09-21T14:05:37.328Z,101174.81
2022-09-21T14:08:08.907Z,101179.84
2022-09-21T14:10:39.466Z,101174.13
2022-09-21T14:13:27.464Z,101171.84
2022-09-21T14:15:55.806Z,101142.72
2022-09-21T14:18:41.363Z,101167.16
2022-09-21T14:21:17.685Z,101175.81
2022-09-21T14:24:19.757Z,101160.81
2022-09-21T14:26:55.360Z,101176.22
2022-09-21T14:29:27.444Z,101139.41
2022-09-21T14:31:59.597Z,101178.97
2022-09-21T14:34:37.709Z,101160.66
2022-09-21T14:37:17.157Z,101157.31
2022-09-21T14:39:47.500Z,101156.94
2022-09-21T14:42:20.657Z,101123.28
2022-09-21T14:44:51.683Z,101155.72
2022-09-21T14:47:43.830Z,101155.72
2022-09-21T14:50:31.693Z,101159.75
2022-09-21T14:53:18.300Z,101160.19
2022-09-21T14:56:03.986Z,101158.78
2022-09-21T14:58:45.191Z,101167.44
2022-09-21T15:01:36.605Z,101158.81
2022-09-21T15:04:27.624Z,101147.50
2022-09-21T15:07:24.817Z,101164.59
2022-09-21T15:10:29.821Z,101161.25
2022-09-21T15:13:03.413Z,101169.66
2022-09-21T15:15:38.497Z,101169.00
2022-09-21T15:18:17.949Z,101170.06
2022-09-21T15:20:46.332Z,101175.13
2022-09-21T15:23:20.651Z,101074.41
2022-09-21T15:25:58.989Z,101171.94
2022-09-21T15:28:32.785Z,101174.69
2022-09-21T15:31:10.848Z,101173.56
2022-09-21T15:33:42.253Z,101174.44
2022-09-21T15:36:10.632Z,101171.34
2022-09-21T15:38:40.471Z,101170.94
2022-09-21T15:41:27.707Z,101168.66
2022-09-21T15:44:12.920Z,101146.56
2022-09-21T15:46:43.441Z,101167.38
2022-09-21T15:49:15.410Z,101162.91
2022-09-21T15:51:46.480Z,101176.75
2022-09-21T15:54:30.101Z,101169.38
2022-09-21T15:56:59.453Z,101175.75
2022-09-21T15:59:28.600Z,101172.84
2022-09-21T16:01:59.769Z,101168.66
2022-09-21T16:04:30.090Z,101163.25
2022-09-21T16:07:05.771Z,101170.69
2022-09-21T16:09:45.160Z,101171.38
2022-09-21T16:12:35.113Z,101160.56
2022-09-21T16:15:08.117Z,101173.53
2022-09-21T16:17:38.788Z,101173.16
2022-09-21T16:20:19.915Z,101149.94
2022-09-21T16:22:50.889Z,101170.91
2022-09-21T16:25:32.594Z,101169.69
2022-09-21T16:28:02.579Z,101179.16
2022-09-21T16:30:49.133Z,101175.41
2022-09-21T16:33:43.998Z,101175.88
2022-09-21T16:36:36.721Z,101172.59
2022-09-21T16:39:14.190Z,101134.81
2022-09-21T16:41:48.556Z,101171.00
2022-09-21T16:44:21.017Z,101172.34
2022-09-21T16:46:52.736Z,101177.84
2022-09-21T16:49:22.065Z,101178.66
2022-09-21T16:51:52.275Z,101183.94
2022-09-21T16:54:25.348Z,101172.84
2022-09-21T16:56:56.595Z,101182.13
2022-09-21T16:59:25.790Z,101187.59
2022-09-21T17:01:56.717Z,101181.13
2022-09-21T17:04:27.666Z,101186.81
2022-09-21T17:06:56.489Z,101191.06
2022-09-21T17:09:29.818Z,101186.03
2022-09-21T17:12:01.731Z,101191.28
2022-09-21T17:14:33.044Z,101192.78
2022-09-21T17:17:04.088Z,101190.25
2022-09-21T17:19:33.073Z,101192.56
2022-09-21T17:22:01.280Z,101195.53
2022-09-21T17:24:49.286Z,101186.72
2022-09-21T17:27:21.463Z,101206.19
2022-09-21T17:29:50.741Z,101202.88
2022-09-21T17:32:21.287Z,101198.66
2022-09-21T17:34:56.454Z,101184.81
2022-09-21T17:37:25.410Z,101204.47
2022-09-21T17:39:54.410Z,101203.41
2022-09-21T17:42:25.997Z,101208.59
2022-09-21T17:45:05.029Z,101210.41
2022-09-21T17:47:34.120Z,101215.31
2022-09-21T17:50:16.267Z,101194.09
2022-09-21T17:53:02.862Z,101224.56
2022-09-21T17:55:32.184Z,101222.38
2022-09-21T17:58:17.432Z,101227.31
2022-09-21T18:00:54.527Z,101220.13
2022-09-21T18:03:24.956Z,101188.66
2022-09-21T18:05:59.440Z,101227.69
2022-09-21T18:08:28.807Z,101235.25
2022-09-21T18:11:04.778Z,101235.28
2022-09-21T18:13:44.492Z,101238.72
2022-09-21T18:16:27.811Z,101243.28
2022-09-21T18:19:05.835Z,101255.28
2022-09-21T18:21:38.590Z,101257.63
2022-09-21T18:24:20.880Z,101252.50
2022-09-21T18:26:52.275Z,101214.19
2022-09-21T18:29:40.847Z,101267.44
2022-09-21T18:32:32.343Z,101261.38
2022-09-21T18:35:17.057Z,101268.88
2022-09-21T18:37:57.945Z,101239.03
2022-09-21T18:40:34.581Z,101286.13
2022-09-21T18:43:13.670Z,101287.34
2022-09-21T18:45:48.152Z,101289.69
2022-09-21T18:48:29.684Z,101291.91
2022-09-21T18:51:06.146Z,101303.16
2022-09-21T18:53:42.005Z,101304.31
2022-09-21T18:56:12.031Z,101314.66
2022-09-21T18:58:41.684Z,101320.41
2022-09-21T19:01:13.368Z,101329.19
2022-09-21T19:03:44.016Z,101330.84
2022-09-21T19:06:26.462Z,101335.22
2022-09-21T19:09:03.990Z,101338.97
2022-09-21T19:11:38.468Z,101340.81
2022-09-21T19:14:15.448Z,101339.53
2022-09-21T19:17:00.898Z,101341.53
2022-09-21T19:19:37.571Z,101341.53
2022-09-21T19:22:26.821Z,101344.06
2022-09-21T19:25:02.487Z,101350.13
2022-09-21T19:27:42.158Z,101350.97
2022-09-21T19:30:13.875Z,101349.94
2022-09-21T19:32:46.407Z,101360.47
2022-09-21T19:35:21.331Z,101364.56
2022-09-21T19:37:51.012Z,101359.22
2022-09-21T19:40:24.280Z,101360.59
2022-09-21T19:43:20.858Z,101365.03
2022-09-21T19:46:07.252Z,101367.78
2022-09-21T19:48:43.667Z,101362.72
2022-09-21T19:51:19.534Z,101363.03
2022-09-21T19:54:12.846Z,101338.09
2022-09-21T19:57:04.996Z,101375.00
2022-09-21T19:59:50.856Z,101375.72
2022-09-21T20:02:23.861Z,101383.72
2022-09-21T20:04:57.606Z,101310.91
2022-09-21T20:07:35.692Z,101385.47
2022-09-21T20:10:45.369Z,101396.75
2022-09-21T20:13:23.673Z,101393.31
2022-09-21T20:16:00.057Z,101392.94
2022-09-21T20:18:37.330Z,101401.41
2022-09-21T20:21:15.133Z,101388.94
2022-09-21T20:23:45.244Z,101399.94
2022-09-21T20:26:24.668Z,101405.22
2022-09-21T20:28:53.940Z,101405.41
2022-09-21T20:31:23.067Z,101402.72
2022-09-21T20:33:51.402Z,101414.56
2022-09-21T20:36:21.056Z,101413.56
2022-09-21T20:38:49.408Z,101410.69
2022-09-21T20:41:19.293Z,101415.59
2022-09-21T20:43:47.664Z,101399.38
2022-09-21T20:46:16.016Z,101403.94
2022-09-21T20:48:44.487Z,101402.28
2022-09-21T20:51:12.802Z,101403.09
2022-09-21T20:53:42.448Z,101398.38
2022-09-21T20:56:12.004Z,101404.06
2022-09-21T20:58:40.301Z,101405.78
2022-09-21T21:01:10.259Z,101412.84
2022-09-21T21:03:38.734Z,101405.88
2022-09-21T21:06:11.657Z,101409.28
2022-09-21T21:08:40.080Z,101407.41
2022-09-21T21:11:10.745Z,101414.50
2022-09-21T21:13:40.124Z,101404.38
2022-09-21T21:16:12.127Z,101404.53
2022-09-21T21:18:41.508Z,101402.47
2022-09-21T21:21:10.243Z,101417.50
2022-09-21T21:23:52.558Z,101404.63
2022-09-21T21:26:33.577Z,101423.09
2022-09-21T21:29:10.822Z,101421.50
2022-09-21T21:31:40.011Z,101419.13
2022-09-21T21:34:08.553Z,101426.00
2022-09-21T21:36:38.915Z,101418.06
2022-09-21T21:39:07.356Z,101422.84
2022-09-21T21:41:37.851Z,101422.47
2022-09-21T21:44:06.313Z,101418.91
2022-09-21T21:46:34.812Z,101435.91
2022-09-21T21:49:03.215Z,101424.53
2022-09-21T21:51:32.188Z,101431.25
2022-09-21T21:54:00.649Z,101428.72
2022-09-21T21:56:29.811Z,101429.38
2022-09-21T21:58:59.563Z,101438.22
2022-09-21T22:01:32.041Z,101445.19
2022-09-21T22:04:03.489Z,101439.22
2022-09-21T22:06:33.547Z,101420.41
2022-09-21T22:09:03.053Z,101439.75
2022-09-21T22:11:32.208Z,101438.06
2022-09-21T22:14:03.018Z,101436.22
2022-09-21T22:16:32.908Z,101443.28
2022-09-21T22:19:04.329Z,101431.53
2022-09-21T22:21:34.850Z,101434.38
2022-09-21T22:24:05.603Z,101441.78
2022-09-21T22:26:38.125Z,101437.53
2022-09-21T22:29:10.717Z,101434.28
2022-09-21T22:31:41.236Z,101435.44
2022-09-21T22:34:10.315Z,101416.44
2022-09-21T22:36:39.640Z,101437.88
2022-09-21T22:39:09.390Z,101445.41
2022-09-21T22:41:40.020Z,101438.81
2022-09-21T22:44:10.701Z,101441.97
2022-09-21T22:46:40.042Z,101442.56
2022-09-21T22:49:08.622Z,101444.31
2022-09-21T22:51:38.173Z,101440.09
2022-09-21T22:54:06.798Z,101442.78
2022-09-21T22:56:36.133Z,101437.84
2022-09-21T22:59:06.198Z,101436.78
2022-09-21T23:01:37.941Z,101434.56
2022-09-21T23:04:09.606Z,101437.94
2022-09-21T23:06:39.699Z,101442.47
2022-09-21T23:09:13.510Z,101451.56
2022-09-21T23:11:46.662Z,101445.78
2022-09-21T23:14:15.843Z,101446.56
2022-09-21T23:16:45.753Z,101454.50
2022-09-21T23:19:16.572Z,101448.72
2022-09-21T23:21:46.789Z,101443.66
2022-09-21T23:24:15.371Z,101444.09
2022-09-21T23:26:44.108Z,101413.75
2022-09-21T23:29:14.492Z,101394.13
2022-09-21T23:31:45.562Z,101440.47
2022-09-21T23:34:16.728Z,101439.19
2022-09-21T23:36:46.254Z,101444.56
2022-09-21T23:39:16.188Z,101441.16
2022-09-21T23:41:44.990Z,101439.91
2022-09-21T23:44:13.317Z,101440.31
2022-09-21T23:46:42.197Z,101442.59
2022-09-21T23:49:11.036Z,101438.09
2022-09-21T23:51:40.900Z,101439.41
2022-09-21T23:54:09.277Z,101433.75
2022-09-21T23:56:38.069Z,101433.47
2022-09-21T23:59:06.945Z,101440.13
